sensor_id;sensor_type;location;lat;lon;timestamp;temperature;humidity
19538;DHT22;9914;51.008;4.300;2023-06-14T00:01:48;22.00;94.40
19538;DHT22;9914;51.008;4.300;2023-06-14T00:04:13;22.00;94.50
19538;DHT22;9914;51.008;4.300;2023-06-14T00:06:42;22.00;94.40
19538;DHT22;9914;51.008;4.300;2023-06-14T00:09:07;22.00;94.40
19538;DHT22;9914;51.008;4.300;2023-06-14T00:11:34;22.00;94.30
19538;DHT22;9914;51.008;4.300;2023-06-14T00:13:59;21.80;94.60
19538;DHT22;9914;51.008;4.300;2023-06-14T00:16:25;21.90;94.60
19538;DHT22;9914;51.008;4.300;2023-06-14T00:18:51;21.90;94.60
19538;DHT22;9914;51.008;4.300;2023-06-14T00:21:19;22.00;94.50
19538;DHT22;9914;51.008;4.300;2023-06-14T00:23:45;21.90;94.60
19538;DHT22;9914;51.008;4.300;2023-06-14T00:26:11;21.70;95.10
19538;DHT22;9914;51.008;4.300;2023-06-14T00:28:37;21.60;95.30
19538;DHT22;9914;51.008;4.300;2023-06-14T00:31:02;21.50;95.40
19538;DHT22;9914;51.008;4.300;2023-06-14T00:33:28;21.30;95.70
19538;DHT22;9914;51.008;4.300;2023-06-14T00:35:53;21.20;95.70
19538;DHT22;9914;51.008;4.300;2023-06-14T00:38:20;21.30;95.60
19538;DHT22;9914;51.008;4.300;2023-06-14T00:40:46;21.50;95.90
19538;DHT22;9914;51.008;4.300;2023-06-14T00:43:12;21.60;96.30
19538;DHT22;9914;51.008;4.300;2023-06-14T00:45:38;21.70;96.20
19538;DHT22;9914;51.008;4.300;2023-06-14T00:48:05;21.70;96.10
19538;DHT22;9914;51.008;4.300;2023-06-14T00:50:32;21.60;96.30
19538;DHT22;9914;51.008;4.300;2023-06-14T00:52:59;21.50;96.60
19538;DHT22;9914;51.008;4.300;2023-06-14T00:55:27;21.30;96.10
19538;DHT22;9914;51.008;4.300;2023-06-14T00:57:54;21.20;96.30
19538;DHT22;9914;51.008;4.300;2023-06-14T01:00:20;21.20;96.20
19538;DHT22;9914;51.008;4.300;2023-06-14T01:02:45;21.10;96.20
19538;DHT22;9914;51.008;4.300;2023-06-14T01:05:12;21.10;96.30
19538;DHT22;9914;51.008;4.300;2023-06-14T01:15:20;20.70;96.80
19538;DHT22;9914;51.008;4.300;2023-06-14T01:17:49;20.70;96.90
19538;DHT22;9914;51.008;4.300;2023-06-14T01:20:19;20.80;96.80
19538;DHT22;9914;51.008;4.300;2023-06-14T01:22:55;20.70;96.80
19538;DHT22;9914;51.008;4.300;2023-06-14T01:25:21;20.90;97.00
19538;DHT22;9914;51.008;4.300;2023-06-14T01:27:53;20.90;96.70
19538;DHT22;9914;51.008;4.300;2023-06-14T01:30:19;21.00;96.80
19538;DHT22;9914;51.008;4.300;2023-06-14T01:32:46;20.90;96.70
19538;DHT22;9914;51.008;4.300;2023-06-14T01:35:12;20.60;96.90
19538;DHT22;9914;51.008;4.300;2023-06-14T01:37:39;20.60;97.10
19538;DHT22;9914;51.008;4.300;2023-06-14T01:40:07;20.60;97.20
19538;DHT22;9914;51.008;4.300;2023-06-14T01:42:35;20.60;97.50
19538;DHT22;9914;51.008;4.300;2023-06-14T01:45:02;20.70;97.40
19538;DHT22;9914;51.008;4.300;2023-06-14T01:47:29;20.80;97.80
19538;DHT22;9914;51.008;4.300;2023-06-14T01:49:55;20.80;98.00
19538;DHT22;9914;51.008;4.300;2023-06-14T01:52:20;20.70;98.40
19538;DHT22;9914;51.008;4.300;2023-06-14T01:54:47;20.60;98.40
19538;DHT22;9914;51.008;4.300;2023-06-14T01:57:15;20.60;98.90
19538;DHT22;9914;51.008;4.300;2023-06-14T01:59:40;20.60;98.90
19538;DHT22;9914;51.008;4.300;2023-06-14T02:02:06;20.60;99.20
19538;DHT22;9914;51.008;4.300;2023-06-14T02:04:32;20.50;99.30
19538;DHT22;9914;51.008;4.300;2023-06-14T02:06:57;20.40;99.50
19538;DHT22;9914;51.008;4.300;2023-06-14T02:09:24;20.20;99.00
19538;DHT22;9914;51.008;4.300;2023-06-14T02:11:50;20.10;99.40
19538;DHT22;9914;51.008;4.300;2023-06-14T02:14:16;20.00;99.90
19538;DHT22;9914;51.008;4.300;2023-06-14T02:16:42;20.00;99.40
19538;DHT22;9914;51.008;4.300;2023-06-14T02:19:15;20.00;99.80
19538;DHT22;9914;51.008;4.300;2023-06-14T02:21:41;20.00;99.80
19538;DHT22;9914;51.008;4.300;2023-06-14T02:24:07;19.90;99.20
19538;DHT22;9914;51.008;4.300;2023-06-14T02:26:32;20.00;99.20
19538;DHT22;9914;51.008;4.300;2023-06-14T02:28:58;19.90;99.10
19538;DHT22;9914;51.008;4.300;2023-06-14T02:31:24;20.10;99.40
19538;DHT22;9914;51.008;4.300;2023-06-14T02:33:50;20.10;99.20
19538;DHT22;9914;51.008;4.300;2023-06-14T02:36:16;20.20;99.10
19538;DHT22;9914;51.008;4.300;2023-06-14T02:38:41;20.20;99.50
19538;DHT22;9914;51.008;4.300;2023-06-14T02:41:07;20.20;99.10
19538;DHT22;9914;51.008;4.300;2023-06-14T02:43:33;20.10;99.50
19538;DHT22;9914;51.008;4.300;2023-06-14T02:45:58;20.10;98.90
19538;DHT22;9914;51.008;4.300;2023-06-14T02:48:24;20.10;99.40
19538;DHT22;9914;51.008;4.300;2023-06-14T02:50:50;20.00;98.50
19538;DHT22;9914;51.008;4.300;2023-06-14T02:53:16;19.90;98.60
19538;DHT22;9914;51.008;4.300;2023-06-14T02:55:42;19.80;98.90
19538;DHT22;9914;51.008;4.300;2023-06-14T02:58:08;19.80;98.90
19538;DHT22;9914;51.008;4.300;2023-06-14T03:00:34;19.80;98.90
19538;DHT22;9914;51.008;4.300;2023-06-14T03:03:00;19.90;98.60
19538;DHT22;9914;51.008;4.300;2023-06-14T03:05:27;19.80;98.70
19538;DHT22;9914;51.008;4.300;2023-06-14T03:07:53;19.80;98.60
19538;DHT22;9914;51.008;4.300;2023-06-14T03:10:19;19.80;98.60
19538;DHT22;9914;51.008;4.300;2023-06-14T03:12:46;19.60;98.70
19538;DHT22;9914;51.008;4.300;2023-06-14T03:15:12;19.70;98.70
19538;DHT22;9914;51.008;4.300;2023-06-14T03:17:40;19.70;98.70
19538;DHT22;9914;51.008;4.300;2023-06-14T03:20:10;19.70;98.70
19538;DHT22;9914;51.008;4.300;2023-06-14T03:22:37;19.60;98.60
19538;DHT22;9914;51.008;4.300;2023-06-14T03:25:03;19.70;98.90
19538;DHT22;9914;51.008;4.300;2023-06-14T03:27:29;19.60;99.00
19538;DHT22;9914;51.008;4.300;2023-06-14T03:29:55;19.70;98.80
19538;DHT22;9914;51.008;4.300;2023-06-14T03:32:20;19.70;98.50
19538;DHT22;9914;51.008;4.300;2023-06-14T03:34:46;19.80;98.40
19538;DHT22;9914;51.008;4.300;2023-06-14T03:37:12;19.80;98.20
19538;DHT22;9914;51.008;4.300;2023-06-14T03:39:37;19.80;98.60
19538;DHT22;9914;51.008;4.300;2023-06-14T03:42:04;19.80;98.40
19538;DHT22;9914;51.008;4.300;2023-06-14T03:44:29;19.70;98.50
19538;DHT22;9914;51.008;4.300;2023-06-14T03:46:55;19.80;98.10
19538;DHT22;9914;51.008;4.300;2023-06-14T03:49:21;19.80;98.20
19538;DHT22;9914;51.008;4.300;2023-06-14T03:51:46;19.70;98.30
19538;DHT22;9914;51.008;4.300;2023-06-14T03:54:16;19.80;98.20
19538;DHT22;9914;51.008;4.300;2023-06-14T03:56:42;19.80;98.10
19538;DHT22;9914;51.008;4.300;2023-06-14T03:59:07;19.70;98.20
19538;DHT22;9914;51.008;4.300;2023-06-14T04:01:33;19.60;98.40
19538;DHT22;9914;51.008;4.300;2023-06-14T04:03:59;19.60;98.60
19538;DHT22;9914;51.008;4.300;2023-06-14T04:06:25;19.60;98.40
19538;DHT22;9914;51.008;4.300;2023-06-14T04:08:58;19.70;98.20
19538;DHT22;9914;51.008;4.300;2023-06-14T04:11:27;19.70;98.20
19538;DHT22;9914;51.008;4.300;2023-06-14T04:13:53;19.70;98.20
19538;DHT22;9914;51.008;4.300;2023-06-14T04:16:19;19.70;98.20
19538;DHT22;9914;51.008;4.300;2023-06-14T04:18:45;19.70;98.20
19538;DHT22;9914;51.008;4.300;2023-06-14T04:21:12;19.70;98.30
19538;DHT22;9914;51.008;4.300;2023-06-14T04:23:37;19.80;98.10
19538;DHT22;9914;51.008;4.300;2023-06-14T04:26:03;19.80;98.10
19538;DHT22;9914;51.008;4.300;2023-06-14T04:28:29;19.80;98.10
19538;DHT22;9914;51.008;4.300;2023-06-14T04:30:55;19.80;98.30
19538;DHT22;9914;51.008;4.300;2023-06-14T04:33:21;19.60;98.40
19538;DHT22;9914;51.008;4.300;2023-06-14T04:35:50;19.60;98.60
19538;DHT22;9914;51.008;4.300;2023-06-14T04:38:19;19.60;98.60
19538;DHT22;9914;51.008;4.300;2023-06-14T04:40:49;19.60;98.70
19538;DHT22;9914;51.008;4.300;2023-06-14T04:43:18;19.70;98.60
19538;DHT22;9914;51.008;4.300;2023-06-14T04:45:52;19.90;98.70
19538;DHT22;9914;51.008;4.300;2023-06-14T04:48:20;20.00;98.10
19538;DHT22;9914;51.008;4.300;2023-06-14T04:50:46;20.10;98.20
19538;DHT22;9914;51.008;4.300;2023-06-14T04:53:11;20.20;98.00
19538;DHT22;9914;51.008;4.300;2023-06-14T04:55:38;20.20;97.90
19538;DHT22;9914;51.008;4.300;2023-06-14T04:58:03;20.30;97.90
19538;DHT22;9914;51.008;4.300;2023-06-14T05:00:30;20.10;98.00
19538;DHT22;9914;51.008;4.300;2023-06-14T05:02:56;20.20;98.20
19538;DHT22;9914;51.008;4.300;2023-06-14T05:05:22;20.10;98.20
19538;DHT22;9914;51.008;4.300;2023-06-14T05:07:48;20.30;97.90
19538;DHT22;9914;51.008;4.300;2023-06-14T05:10:15;20.10;98.10
19538;DHT22;9914;51.008;4.300;2023-06-14T05:12:40;20.20;98.20
19538;DHT22;9914;51.008;4.300;2023-06-14T05:15:10;20.30;98.30
19538;DHT22;9914;51.008;4.300;2023-06-14T05:17:36;20.40;97.80
19538;DHT22;9914;51.008;4.300;2023-06-14T05:20:02;20.50;97.70
19538;DHT22;9914;51.008;4.300;2023-06-14T05:22:28;20.70;97.50
19538;DHT22;9914;51.008;4.300;2023-06-14T05:24:54;20.70;97.50
19538;DHT22;9914;51.008;4.300;2023-06-14T05:27:19;20.80;97.20
19538;DHT22;9914;51.008;4.300;2023-06-14T05:29:45;20.80;97.20
19538;DHT22;9914;51.008;4.300;2023-06-14T05:32:11;20.90;97.10
19538;DHT22;9914;51.008;4.300;2023-06-14T05:34:36;20.90;96.90
19538;DHT22;9914;51.008;4.300;2023-06-14T05:37:02;21.00;96.90
19538;DHT22;9914;51.008;4.300;2023-06-14T05:39:29;21.00;97.00
19538;DHT22;9914;51.008;4.300;2023-06-14T05:41:55;21.00;96.90
19538;DHT22;9914;51.008;4.300;2023-06-14T05:44:21;21.10;96.80
19538;DHT22;9914;51.008;4.300;2023-06-14T05:46:46;21.20;96.90
19538;DHT22;9914;51.008;4.300;2023-06-14T05:49:12;21.20;96.80
19538;DHT22;9914;51.008;4.300;2023-06-14T05:51:38;21.20;96.50
19538;DHT22;9914;51.008;4.300;2023-06-14T05:54:04;21.20;96.40
19538;DHT22;9914;51.008;4.300;2023-06-14T05:56:30;21.30;96.60
19538;DHT22;9914;51.008;4.300;2023-06-14T05:58:56;21.50;96.60
19538;DHT22;9914;51.008;4.300;2023-06-14T06:01:21;21.60;96.30
19538;DHT22;9914;51.008;4.300;2023-06-14T06:03:47;21.70;96.20
19538;DHT22;9914;51.008;4.300;2023-06-14T06:06:13;21.80;96.30
19538;DHT22;9914;51.008;4.300;2023-06-14T06:08:39;21.90;96.00
19538;DHT22;9914;51.008;4.300;2023-06-14T06:11:06;21.90;96.10
19538;DHT22;9914;51.008;4.300;2023-06-14T06:13:31;22.00;95.80
19538;DHT22;9914;51.008;4.300;2023-06-14T06:15:58;22.00;95.90
19538;DHT22;9914;51.008;4.300;2023-06-14T06:18:23;22.00;96.00
19538;DHT22;9914;51.008;4.300;2023-06-14T06:20:49;22.20;95.60
19538;DHT22;9914;51.008;4.300;2023-06-14T06:23:15;22.30;95.50
19538;DHT22;9914;51.008;4.300;2023-06-14T06:25:41;22.40;95.40
19538;DHT22;9914;51.008;4.300;2023-06-14T06:28:06;22.40;95.60
19538;DHT22;9914;51.008;4.300;2023-06-14T06:30:32;22.60;95.30
19538;DHT22;9914;51.008;4.300;2023-06-14T06:32:58;22.50;95.30
19538;DHT22;9914;51.008;4.300;2023-06-14T06:35:24;22.60;95.10
19538;DHT22;9914;51.008;4.300;2023-06-14T06:37:49;22.90;94.90
19538;DHT22;9914;51.008;4.300;2023-06-14T06:40:15;22.80;95.00
19538;DHT22;9914;51.008;4.300;2023-06-14T06:42:41;22.80;95.30
19538;DHT22;9914;51.008;4.300;2023-06-14T06:45:07;23.00;94.50
19538;DHT22;9914;51.008;4.300;2023-06-14T06:47:32;23.20;94.60
19538;DHT22;9914;51.008;4.300;2023-06-14T06:49:58;23.30;94.50
19538;DHT22;9914;51.008;4.300;2023-06-14T06:52:24;23.50;94.60
19538;DHT22;9914;51.008;4.300;2023-06-14T06:54:50;23.50;94.30
19538;DHT22;9914;51.008;4.300;2023-06-14T06:57:20;23.50;94.50
19538;DHT22;9914;51.008;4.300;2023-06-14T06:59:48;23.40;94.80
19538;DHT22;9914;51.008;4.300;2023-06-14T07:02:14;23.30;94.50
19538;DHT22;9914;51.008;4.300;2023-06-14T07:04:39;23.30;94.60
19538;DHT22;9914;51.008;4.300;2023-06-14T07:07:05;23.70;94.10
19538;DHT22;9914;51.008;4.300;2023-06-14T07:09:31;24.00;93.60
19538;DHT22;9914;51.008;4.300;2023-06-14T07:11:56;24.10;93.50
19538;DHT22;9914;51.008;4.300;2023-06-14T07:14:22;24.10;93.30
19538;DHT22;9914;51.008;4.300;2023-06-14T07:16:48;24.00;93.70
19538;DHT22;9914;51.008;4.300;2023-06-14T07:19:14;23.90;94.00
19538;DHT22;9914;51.008;4.300;2023-06-14T07:21:40;23.80;93.90
19538;DHT22;9914;51.008;4.300;2023-06-14T07:24:06;24.00;93.80
19538;DHT22;9914;51.008;4.300;2023-06-14T07:26:33;24.00;93.70
19538;DHT22;9914;51.008;4.300;2023-06-14T07:29:00;24.30;93.30
19538;DHT22;9914;51.008;4.300;2023-06-14T07:31:25;24.70;92.80
19538;DHT22;9914;51.008;4.300;2023-06-14T07:33:52;25.00;92.60
19538;DHT22;9914;51.008;4.300;2023-06-14T07:36:17;25.20;92.60
19538;DHT22;9914;51.008;4.300;2023-06-14T07:38:43;25.40;92.00
19538;DHT22;9914;51.008;4.300;2023-06-14T07:41:09;25.40;91.40
19538;DHT22;9914;51.008;4.300;2023-06-14T07:43:35;25.40;91.60
19538;DHT22;9914;51.008;4.300;2023-06-14T07:46:00;25.40;92.40
19538;DHT22;9914;51.008;4.300;2023-06-14T07:48:27;25.30;92.60
19538;DHT22;9914;51.008;4.300;2023-06-14T07:50:53;25.20;92.90
19538;DHT22;9914;51.008;4.300;2023-06-14T07:53:18;25.20;92.70
19538;DHT22;9914;51.008;4.300;2023-06-14T07:55:44;25.10;92.90
19538;DHT22;9914;51.008;4.300;2023-06-14T07:58:10;25.00;93.00
19538;DHT22;9914;51.008;4.300;2023-06-14T08:00:36;25.20;93.00
19538;DHT22;9914;51.008;4.300;2023-06-14T08:03:01;25.20;93.00
19538;DHT22;9914;51.008;4.300;2023-06-14T08:05:28;25.40;93.40
19538;DHT22;9914;51.008;4.300;2023-06-14T08:07:54;25.60;92.70
19538;DHT22;9914;51.008;4.300;2023-06-14T08:10:21;25.70;92.80
19538;DHT22;9914;51.008;4.300;2023-06-14T08:12:46;25.90;92.10
19538;DHT22;9914;51.008;4.300;2023-06-14T08:15:12;26.10;92.00
19538;DHT22;9914;51.008;4.300;2023-06-14T08:17:37;26.10;91.60
19538;DHT22;9914;51.008;4.300;2023-06-14T08:20:04;26.20;91.20
19538;DHT22;9914;51.008;4.300;2023-06-14T08:22:30;25.70;91.60
19538;DHT22;9914;51.008;4.300;2023-06-14T08:25:02;25.90;91.90
19538;DHT22;9914;51.008;4.300;2023-06-14T08:27:27;25.90;91.20
19538;DHT22;9914;51.008;4.300;2023-06-14T08:29:53;26.00;91.30
19538;DHT22;9914;51.008;4.300;2023-06-14T08:32:19;26.40;91.40
19538;DHT22;9914;51.008;4.300;2023-06-14T08:34:45;26.80;91.10
19538;DHT22;9914;51.008;4.300;2023-06-14T08:37:10;26.70;90.90
19538;DHT22;9914;51.008;4.300;2023-06-14T08:39:37;26.70;91.40
19538;DHT22;9914;51.008;4.300;2023-06-14T08:42:03;26.40;91.30
19538;DHT22;9914;51.008;4.300;2023-06-14T08:44:30;26.40;91.10
19538;DHT22;9914;51.008;4.300;2023-06-14T08:46:59;26.50;91.50
19538;DHT22;9914;51.008;4.300;2023-06-14T08:49:25;26.40;91.60
19538;DHT22;9914;51.008;4.300;2023-06-14T08:51:56;26.30;91.30
19538;DHT22;9914;51.008;4.300;2023-06-14T08:54:28;26.10;91.90
19538;DHT22;9914;51.008;4.300;2023-06-14T08:56:59;26.10;92.20
19538;DHT22;9914;51.008;4.300;2023-06-14T08:59:29;26.30;92.10
19538;DHT22;9914;51.008;4.300;2023-06-14T09:01:56;26.50;91.90
19538;DHT22;9914;51.008;4.300;2023-06-14T09:04:22;26.30;91.60
19538;DHT22;9914;51.008;4.300;2023-06-14T09:06:49;26.20;91.50
19538;DHT22;9914;51.008;4.300;2023-06-14T09:09:20;26.10;92.60
19538;DHT22;9914;51.008;4.300;2023-06-14T09:11:46;26.10;92.40
19538;DHT22;9914;51.008;4.300;2023-06-14T09:14:12;26.10;92.10
19538;DHT22;9914;51.008;4.300;2023-06-14T09:16:37;25.90;92.80
19538;DHT22;9914;51.008;4.300;2023-06-14T09:19:03;26.30;92.30
19538;DHT22;9914;51.008;4.300;2023-06-14T09:21:34;26.00;92.10
19538;DHT22;9914;51.008;4.300;2023-06-14T09:23:59;26.20;91.60
19538;DHT22;9914;51.008;4.300;2023-06-14T09:26:27;26.30;91.50
19538;DHT22;9914;51.008;4.300;2023-06-14T09:28:53;26.40;92.10
19538;DHT22;9914;51.008;4.300;2023-06-14T09:31:21;26.50;91.80
19538;DHT22;9914;51.008;4.300;2023-06-14T09:33:50;26.40;92.00
19538;DHT22;9914;51.008;4.300;2023-06-14T09:36:18;26.70;92.30
19538;DHT22;9914;51.008;4.300;2023-06-14T09:41:19;26.90;90.80
19538;DHT22;9914;51.008;4.300;2023-06-14T09:43:46;26.80;91.50
19538;DHT22;9914;51.008;4.300;2023-06-14T09:46:13;26.90;91.30
19538;DHT22;9914;51.008;4.300;2023-06-14T09:48:39;27.20;90.50
19538;DHT22;9914;51.008;4.300;2023-06-14T09:51:10;27.10;89.80
19538;DHT22;9914;51.008;4.300;2023-06-14T09:53:36;27.10;90.00
19538;DHT22;9914;51.008;4.300;2023-06-14T09:56:02;27.30;89.90
19538;DHT22;9914;51.008;4.300;2023-06-14T09:58:31;27.20;89.60
19538;DHT22;9914;51.008;4.300;2023-06-14T10:01:02;26.90;89.90
19538;DHT22;9914;51.008;4.300;2023-06-14T10:03:29;26.90;89.50
19538;DHT22;9914;51.008;4.300;2023-06-14T10:05:58;26.80;89.80
19538;DHT22;9914;51.008;4.300;2023-06-14T10:08:27;26.80;90.30
19538;DHT22;9914;51.008;4.300;2023-06-14T10:10:56;27.10;87.70
19538;DHT22;9914;51.008;4.300;2023-06-14T10:13:22;27.20;86.60
19538;DHT22;9914;51.008;4.300;2023-06-14T10:16:02;27.60;86.60
19538;DHT22;9914;51.008;4.300;2023-06-14T10:18:33;27.70;86.40
19538;DHT22;9914;51.008;4.300;2023-06-14T10:21:28;27.70;85.80
19538;DHT22;9914;51.008;4.300;2023-06-14T10:24:01;27.80;84.80
19538;DHT22;9914;51.008;4.300;2023-06-14T10:26:29;27.70;84.00
19538;DHT22;9914;51.008;4.300;2023-06-14T10:29:08;28.00;84.30
19538;DHT22;9914;51.008;4.300;2023-06-14T10:31:45;28.10;85.90
19538;DHT22;9914;51.008;4.300;2023-06-14T10:34:12;28.00;84.90
19538;DHT22;9914;51.008;4.300;2023-06-14T10:36:42;28.00;85.50
19538;DHT22;9914;51.008;4.300;2023-06-14T10:39:15;28.00;84.70
19538;DHT22;9914;51.008;4.300;2023-06-14T10:41:53;27.80;84.70
19538;DHT22;9914;51.008;4.300;2023-06-14T10:46:54;27.90;83.00
19538;DHT22;9914;51.008;4.300;2023-06-14T10:49:36;28.20;81.70
19538;DHT22;9914;51.008;4.300;2023-06-14T10:52:08;28.80;82.60
19538;DHT22;9914;51.008;4.300;2023-06-14T10:55:02;29.00;81.20
19538;DHT22;9914;51.008;4.300;2023-06-14T11:00:09;28.80;80.20
19538;DHT22;9914;51.008;4.300;2023-06-14T11:05:50;28.90;79.30
19538;DHT22;9914;51.008;4.300;2023-06-14T11:11:13;28.80;80.00
19538;DHT22;9914;51.008;4.300;2023-06-14T11:13:41;28.80;78.40
19538;DHT22;9914;51.008;4.300;2023-06-14T11:16:17;28.70;79.30
19538;DHT22;9914;51.008;4.300;2023-06-14T11:18:44;28.10;80.20
19538;DHT22;9914;51.008;4.300;2023-06-14T11:21:11;28.10;80.60
19538;DHT22;9914;51.008;4.300;2023-06-14T11:23:40;28.20;79.60
19538;DHT22;9914;51.008;4.300;2023-06-14T11:26:06;28.00;80.30
19538;DHT22;9914;51.008;4.300;2023-06-14T11:28:41;27.70;81.60
19538;DHT22;9914;51.008;4.300;2023-06-14T11:31:07;27.70;81.90
19538;DHT22;9914;51.008;4.300;2023-06-14T11:33:33;27.90;81.60
19538;DHT22;9914;51.008;4.300;2023-06-14T11:36:02;28.00;81.40
19538;DHT22;9914;51.008;4.300;2023-06-14T11:38:29;28.10;82.10
19538;DHT22;9914;51.008;4.300;2023-06-14T11:40:59;28.60;81.10
19538;DHT22;9914;51.008;4.300;2023-06-14T11:43:25;28.50;79.80
19538;DHT22;9914;51.008;4.300;2023-06-14T11:45:52;28.60;80.80
19538;DHT22;9914;51.008;4.300;2023-06-14T11:48:18;29.00;79.90
19538;DHT22;9914;51.008;4.300;2023-06-14T11:50:44;29.10;79.70
19538;DHT22;9914;51.008;4.300;2023-06-14T11:53:10;28.80;80.80
19538;DHT22;9914;51.008;4.300;2023-06-14T11:55:38;28.60;81.00
19538;DHT22;9914;51.008;4.300;2023-06-14T11:58:04;28.60;80.40
19538;DHT22;9914;51.008;4.300;2023-06-14T12:00:30;28.60;80.00
19538;DHT22;9914;51.008;4.300;2023-06-14T12:02:56;28.40;79.30
19538;DHT22;9914;51.008;4.300;2023-06-14T12:05:22;28.20;80.70
19538;DHT22;9914;51.008;4.300;2023-06-14T12:07:49;28.60;80.80
19538;DHT22;9914;51.008;4.300;2023-06-14T12:10:16;28.60;79.00
19538;DHT22;9914;51.008;4.300;2023-06-14T12:12:42;28.40;79.20
19538;DHT22;9914;51.008;4.300;2023-06-14T12:15:08;28.50;79.30
19538;DHT22;9914;51.008;4.300;2023-06-14T12:17:37;28.40;78.50
19538;DHT22;9914;51.008;4.300;2023-06-14T12:20:08;28.40;78.70
19538;DHT22;9914;51.008;4.300;2023-06-14T12:22:55;28.40;78.70
19538;DHT22;9914;51.008;4.300;2023-06-14T12:27:56;28.50;78.80
19538;DHT22;9914;51.008;4.300;2023-06-14T12:30:22;28.60;78.60
19538;DHT22;9914;51.008;4.300;2023-06-14T12:32:47;28.80;79.00
19538;DHT22;9914;51.008;4.300;2023-06-14T12:35:15;29.00;78.30
19538;DHT22;9914;51.008;4.300;2023-06-14T12:37:40;29.20;76.80
19538;DHT22;9914;51.008;4.300;2023-06-14T12:40:07;29.40;76.90
19538;DHT22;9914;51.008;4.300;2023-06-14T12:42:33;29.60;77.20
19538;DHT22;9914;51.008;4.300;2023-06-14T12:44:59;29.80;77.00
19538;DHT22;9914;51.008;4.300;2023-06-14T12:47:25;29.80;79.00
19538;DHT22;9914;51.008;4.300;2023-06-14T12:49:51;29.90;76.70
19538;DHT22;9914;51.008;4.300;2023-06-14T12:52:16;29.90;77.70
19538;DHT22;9914;51.008;4.300;2023-06-14T12:54:42;29.80;77.30
19538;DHT22;9914;51.008;4.300;2023-06-14T12:57:07;29.50;77.40
19538;DHT22;9914;51.008;4.300;2023-06-14T12:59:33;29.50;77.60
19538;DHT22;9914;51.008;4.300;2023-06-14T13:02:16;29.60;78.50
19538;DHT22;9914;51.008;4.300;2023-06-14T13:04:42;29.60;78.20
19538;DHT22;9914;51.008;4.300;2023-06-14T13:07:08;29.50;78.40
19538;DHT22;9914;51.008;4.300;2023-06-14T13:09:34;29.40;77.50
19538;DHT22;9914;51.008;4.300;2023-06-14T13:12:00;29.20;78.30
19538;DHT22;9914;51.008;4.300;2023-06-14T13:14:26;29.10;77.90
19538;DHT22;9914;51.008;4.300;2023-06-14T13:16:52;28.80;78.00
19538;DHT22;9914;51.008;4.300;2023-06-14T13:19:18;28.70;78.00
19538;DHT22;9914;51.008;4.300;2023-06-14T13:21:43;29.20;77.50
19538;DHT22;9914;51.008;4.300;2023-06-14T13:24:09;29.50;76.90
19538;DHT22;9914;51.008;4.300;2023-06-14T13:26:35;29.20;77.30
19538;DHT22;9914;51.008;4.300;2023-06-14T13:29:00;29.40;76.90
19538;DHT22;9914;51.008;4.300;2023-06-14T13:31:26;29.70;75.60
19538;DHT22;9914;51.008;4.300;2023-06-14T13:33:52;30.00;76.10
19538;DHT22;9914;51.008;4.300;2023-06-14T13:36:17;29.70;74.40
19538;DHT22;9914;51.008;4.300;2023-06-14T13:38:43;29.70;75.60
19538;DHT22;9914;51.008;4.300;2023-06-14T13:41:09;29.80;75.00
19538;DHT22;9914;51.008;4.300;2023-06-14T13:43:34;29.90;74.40
19538;DHT22;9914;51.008;4.300;2023-06-14T13:46:00;29.60;72.00
19538;DHT22;9914;51.008;4.300;2023-06-14T13:48:26;29.60;73.40
19538;DHT22;9914;51.008;4.300;2023-06-14T13:50:52;29.40;73.40
19538;DHT22;9914;51.008;4.300;2023-06-14T13:53:18;29.60;72.80
19538;DHT22;9914;51.008;4.300;2023-06-14T13:55:43;30.00;72.80
19538;DHT22;9914;51.008;4.300;2023-06-14T13:58:09;29.60;73.10
19538;DHT22;9914;51.008;4.300;2023-06-14T14:00:35;29.60;73.80
19538;DHT22;9914;51.008;4.300;2023-06-14T14:03:06;29.70;72.60
19538;DHT22;9914;51.008;4.300;2023-06-14T14:05:31;29.40;73.00
19538;DHT22;9914;51.008;4.300;2023-06-14T14:07:57;29.60;72.10
19538;DHT22;9914;51.008;4.300;2023-06-14T14:10:24;29.50;73.20
19538;DHT22;9914;51.008;4.300;2023-06-14T14:12:50;29.50;71.80
19538;DHT22;9914;51.008;4.300;2023-06-14T14:15:16;29.70;71.40
19538;DHT22;9914;51.008;4.300;2023-06-14T14:17:42;29.70;71.20
19538;DHT22;9914;51.008;4.300;2023-06-14T14:20:08;29.90;71.40
19538;DHT22;9914;51.008;4.300;2023-06-14T14:22:34;29.70;71.10
19538;DHT22;9914;51.008;4.300;2023-06-14T14:25:00;29.50;71.40
19538;DHT22;9914;51.008;4.300;2023-06-14T14:27:25;29.60;71.70
19538;DHT22;9914;51.008;4.300;2023-06-14T14:29:51;29.60;71.70
19538;DHT22;9914;51.008;4.300;2023-06-14T14:32:17;29.70;71.10
19538;DHT22;9914;51.008;4.300;2023-06-14T14:34:42;29.90;70.70
19538;DHT22;9914;51.008;4.300;2023-06-14T14:37:08;29.90;71.00
19538;DHT22;9914;51.008;4.300;2023-06-14T14:39:34;29.80;71.10
19538;DHT22;9914;51.008;4.300;2023-06-14T14:42:00;29.90;71.00
19538;DHT22;9914;51.008;4.300;2023-06-14T14:44:25;30.00;71.70
19538;DHT22;9914;51.008;4.300;2023-06-14T14:46:51;29.90;71.10
19538;DHT22;9914;51.008;4.300;2023-06-14T14:49:16;29.80;71.50
19538;DHT22;9914;51.008;4.300;2023-06-14T14:51:42;29.80;71.30
19538;DHT22;9914;51.008;4.300;2023-06-14T14:54:08;30.00;71.50
19538;DHT22;9914;51.008;4.300;2023-06-14T14:56:33;30.20;71.10
19538;DHT22;9914;51.008;4.300;2023-06-14T14:59:00;30.80;69.70
19538;DHT22;9914;51.008;4.300;2023-06-14T15:01:26;32.30;67.70
19538;DHT22;9914;51.008;4.300;2023-06-14T15:03:51;33.10;66.10
19538;DHT22;9914;51.008;4.300;2023-06-14T15:06:17;34.10;65.70
19538;DHT22;9914;51.008;4.300;2023-06-14T15:08:43;34.90;64.10
19538;DHT22;9914;51.008;4.300;2023-06-14T15:11:09;36.20;63.30
19538;DHT22;9914;51.008;4.300;2023-06-14T15:13:35;37.80;62.40
19538;DHT22;9914;51.008;4.300;2023-06-14T15:16:01;36.50;60.90
19538;DHT22;9914;51.008;4.300;2023-06-14T15:18:26;36.30;62.30
19538;DHT22;9914;51.008;4.300;2023-06-14T15:20:52;35.50;63.20
19538;DHT22;9914;51.008;4.300;2023-06-14T15:23:17;35.20;63.60
19538;DHT22;9914;51.008;4.300;2023-06-14T15:25:46;35.20;63.50
19538;DHT22;9914;51.008;4.300;2023-06-14T15:28:14;35.50;63.20
19538;DHT22;9914;51.008;4.300;2023-06-14T15:30:40;35.00;63.10
19538;DHT22;9914;51.008;4.300;2023-06-14T15:33:06;35.00;62.90
19538;DHT22;9914;51.008;4.300;2023-06-14T15:35:32;34.90;63.80
19538;DHT22;9914;51.008;4.300;2023-06-14T15:37:57;35.80;63.00
19538;DHT22;9914;51.008;4.300;2023-06-14T15:40:23;35.50;61.60
19538;DHT22;9914;51.008;4.300;2023-06-14T15:42:49;35.10;62.50
19538;DHT22;9914;51.008;4.300;2023-06-14T15:45:14;35.00;62.80
19538;DHT22;9914;51.008;4.300;2023-06-14T15:47:41;34.10;62.80
19538;DHT22;9914;51.008;4.300;2023-06-14T15:50:07;35.00;62.30
19538;DHT22;9914;51.008;4.300;2023-06-14T15:52:33;35.40;61.90
19538;DHT22;9914;51.008;4.300;2023-06-14T15:54:59;35.90;62.60
19538;DHT22;9914;51.008;4.300;2023-06-14T15:57:25;34.80;64.40
19538;DHT22;9914;51.008;4.300;2023-06-14T15:59:51;35.30;63.80
19538;DHT22;9914;51.008;4.300;2023-06-14T16:02:17;36.70;61.60
19538;DHT22;9914;51.008;4.300;2023-06-14T16:04:43;37.80;59.60
19538;DHT22;9914;51.008;4.300;2023-06-14T16:07:08;37.90;59.40